createdAt,value
2022-08-14T00:01:10.042Z,6.60
2022-08-14T00:03:41.396Z,6.07
2022-08-14T00:06:25.657Z,6.65
2022-08-14T00:08:59.121Z,6.97
2022-08-14T00:11:28.804Z,6.72
2022-08-14T00:13:59.637Z,7.25
2022-08-14T00:16:41.547Z,6.80
2022-08-14T00:19:18.805Z,7.30
2022-08-14T00:21:47.950Z,7.43
2022-08-14T00:24:28.268Z,6.88
2022-08-14T00:27:02.449Z,7.03
2022-08-14T00:29:39.846Z,6.25
2022-08-14T00:32:52.208Z,7.10
2022-08-14T00:35:01.190Z,6.28
2022-08-14T00:37:28.954Z,7.15
2022-08-14T00:40:00.070Z,6.00
2022-08-14T00:42:55.785Z,6.57
2022-08-14T00:45:16.512Z,5.90
2022-08-14T00:47:45.427Z,6.60
2022-08-14T00:50:17.866Z,7.10
2022-08-14T00:52:46.378Z,6.20
2022-08-14T00:55:19.780Z,6.20
2022-08-14T00:58:07.866Z,5.57
2022-08-14T01:00:42.916Z,6.30
2022-08-14T01:03:16.306Z,5.55
2022-08-14T01:05:51.573Z,5.32
2022-08-14T01:08:51.163Z,5.50
2022-08-14T01:11:09.645Z,5.47
2022-08-14T01:13:42.898Z,5.60
2022-08-14T01:16:14.872Z,5.53
2022-08-14T01:19:02.255Z,4.68
2022-08-14T01:21:34.794Z,4.78
2022-08-14T01:24:28.775Z,5.00
2022-08-14T01:27:00.647Z,4.97
2022-08-14T01:29:58.982Z,4.70
2022-08-14T01:32:23.014Z,4.70
2022-08-14T01:35:18.633Z,5.13
2022-08-14T01:37:44.026Z,4.93
2022-08-14T01:40:15.495Z,4.63
2022-08-14T01:42:49.608Z,4.40
2022-08-14T01:45:17.858Z,4.70
2022-08-14T01:48:03.628Z,4.30
2022-08-14T01:50:33.797Z,4.45
2022-08-14T01:53:03.369Z,3.92
2022-08-14T01:55:31.622Z,3.95
2022-08-14T01:58:18.993Z,3.67
2022-08-14T02:00:53.983Z,3.80
2022-08-14T02:03:23.317Z,3.50
2022-08-14T02:05:51.206Z,3.30
2022-08-14T02:08:22.421Z,2.90
2022-08-14T02:11:20.250Z,2.88
2022-08-14T02:13:50.739Z,3.10
2022-08-14T02:16:22.272Z,2.70
2022-08-14T02:18:50.717Z,2.70
2022-08-14T02:21:19.303Z,3.00
2022-08-14T02:23:53.691Z,2.55
2022-08-14T02:26:24.480Z,2.42
2022-08-14T02:29:00.559Z,2.33
2022-08-14T02:31:42.560Z,2.47
2022-08-14T02:34:22.451Z,2.40
2022-08-14T02:37:04.284Z,2.22
2022-08-14T02:39:36.177Z,2.20
2022-08-14T02:42:05.488Z,2.15
2022-08-14T02:44:39.732Z,2.38
2022-08-14T02:47:15.083Z,2.10
2022-08-14T02:49:50.613Z,2.00
2022-08-14T02:52:56.715Z,1.90
2022-08-14T02:55:19.809Z,1.73
2022-08-14T02:57:57.806Z,1.90
2022-08-14T03:00:25.866Z,1.58
2022-08-14T03:02:58.863Z,1.90
2022-08-14T03:05:32.899Z,1.58
2022-08-14T03:08:07.950Z,1.67
2022-08-14T03:10:37.151Z,1.70
2022-08-14T03:13:19.582Z,1.60
2022-08-14T03:15:51.041Z,1.92
2022-08-14T03:18:30.722Z,1.60
2022-08-14T03:21:00.985Z,1.70
2022-08-14T03:23:37.655Z,1.75
2022-08-14T03:26:12.567Z,2.00
2022-08-14T03:28:46.887Z,1.58
2022-08-14T03:31:14.938Z,1.60
2022-08-14T03:33:43.125Z,1.60
2022-08-14T03:37:37.371Z,1.60
2022-08-14T03:39:10.593Z,1.70
2022-08-14T03:41:45.320Z,1.65
2022-08-14T03:45:27.317Z,1.80
2022-08-14T03:47:03.117Z,1.40
2022-08-14T03:49:31.060Z,1.42
2022-08-14T03:52:00.615Z,1.55
2022-08-14T03:54:28.817Z,1.55
2022-08-14T03:57:02.573Z,1.75
2022-08-14T03:59:31.448Z,1.50
2022-08-14T04:02:02.117Z,1.42
2022-08-14T04:04:32.193Z,1.70
2022-08-14T04:07:01.345Z,1.48
2022-08-14T04:09:29.182Z,1.45
2022-08-14T04:11:59.855Z,1.40
2022-08-14T04:14:28.936Z,1.50
2022-08-14T04:16:57.153Z,1.60
2022-08-14T04:19:28.263Z,1.60
2022-08-14T04:22:03.841Z,1.42
2022-08-14T04:24:38.159Z,1.70
2022-08-14T04:27:09.557Z,1.70
2022-08-14T04:29:38.873Z,1.75
2022-08-14T04:33:01.777Z,1.45
2022-08-14T04:34:55.752Z,1.55
2022-08-14T04:37:56.095Z,1.58
2022-08-14T04:40:50.155Z,1.50
2022-08-14T04:43:39.169Z,1.42
2022-08-14T04:46:07.973Z,1.70
2022-08-14T04:48:43.026Z,1.60
2022-08-14T04:51:12.035Z,1.35
2022-08-14T04:53:43.422Z,1.48
2022-08-14T04:56:31.553Z,1.60
2022-08-14T04:59:05.116Z,1.50
2022-08-14T05:01:39.846Z,1.70
2022-08-14T05:04:08.319Z,1.58
2022-08-14T05:06:39.179Z,1.45
2022-08-14T05:09:10.538Z,1.70
2022-08-14T05:11:42.539Z,1.60
2022-08-14T05:14:16.691Z,1.48
2022-08-14T05:17:02.095Z,1.40
2022-08-14T05:19:32.598Z,1.45
2022-08-14T05:22:16.951Z,1.50
2022-08-14T05:24:48.763Z,1.48
2022-08-14T05:27:22.277Z,1.60
2022-08-14T05:29:55.336Z,1.60
2022-08-14T05:32:27.653Z,1.50
2022-08-14T05:34:57.776Z,1.65
2022-08-14T05:37:26.509Z,1.30
2022-08-14T05:39:54.833Z,1.40
2022-08-14T05:42:27.110Z,1.50
2022-08-14T05:44:58.140Z,1.50
2022-08-14T05:47:28.546Z,1.48
2022-08-14T05:49:58.276Z,1.60
2022-08-14T05:52:26.378Z,1.30
2022-08-14T05:55:08.401Z,1.40
2022-08-14T05:57:36.168Z,1.58
2022-08-14T06:00:06.417Z,1.58
2022-08-14T06:02:36.680Z,1.35
2022-08-14T06:05:04.702Z,1.40
2022-08-14T06:07:32.393Z,1.52
2022-08-14T06:10:04.037Z,1.52
2022-08-14T06:12:55.676Z,1.20
2022-08-14T06:15:21.121Z,1.42
2022-08-14T06:17:58.680Z,1.27
2022-08-14T06:20:27.936Z,1.27
2022-08-14T06:22:56.324Z,1.40
2022-08-14T06:25:25.066Z,1.40
2022-08-14T06:27:53.841Z,1.50
2022-08-14T06:30:24.020Z,1.50
2022-08-14T06:32:58.381Z,1.30
2022-08-14T06:35:26.454Z,1.20
2022-08-14T06:37:55.178Z,1.20
2022-08-14T06:40:27.714Z,1.45
2022-08-14T06:42:56.588Z,1.20
2022-08-14T06:45:26.487Z,1.40
2022-08-14T06:47:58.573Z,1.30
2022-08-14T06:50:28.734Z,1.35
2022-08-14T06:52:58.250Z,1.30
2022-08-14T06:55:28.269Z,1.30
2022-08-14T06:57:57.610Z,1.33
2022-08-14T07:00:31.194Z,1.40
2022-08-14T07:03:16.910Z,1.42
2022-08-14T07:05:55.517Z,1.25
2022-08-14T07:08:26.287Z,1.45
2022-08-14T07:10:58.290Z,1.33
2022-08-14T07:13:28.223Z,1.50
2022-08-14T07:15:58.491Z,1.10
2022-08-14T07:18:27.358Z,1.30
2022-08-14T07:20:56.279Z,1.38
2022-08-14T07:23:25.690Z,1.60
2022-08-14T07:25:54.832Z,1.10
2022-08-14T07:28:25.280Z,1.38
2022-08-14T07:30:56.219Z,1.35
2022-08-14T07:33:29.030Z,1.23
2022-08-14T07:35:59.196Z,1.40
2022-08-14T07:38:32.031Z,1.40
2022-08-14T07:41:03.618Z,1.30
2022-08-14T07:43:39.503Z,1.20
2022-08-14T07:46:07.922Z,1.40
2022-08-14T07:48:40.654Z,1.30
2022-08-14T07:51:11.082Z,1.35
2022-08-14T07:53:40.878Z,1.10
2022-08-14T07:56:44.347Z,1.27
2022-08-14T07:58:58.704Z,1.20
2022-08-14T08:01:26.585Z,1.33
2022-08-14T08:03:59.672Z,1.13
2022-08-14T08:06:27.806Z,1.48
2022-08-14T08:09:01.114Z,1.25
2022-08-14T08:11:34.933Z,1.20
2022-08-14T08:14:10.707Z,1.20
2022-08-14T08:16:45.162Z,1.27
2022-08-14T08:19:18.862Z,1.30
2022-08-14T08:21:47.153Z,1.20
2022-08-14T08:24:19.993Z,1.42
2022-08-14T08:26:50.490Z,1.20
2022-08-14T08:29:25.096Z,1.30
2022-08-14T08:31:56.371Z,1.17
2022-08-14T08:34:31.159Z,1.48
2022-08-14T08:37:01.687Z,1.50
2022-08-14T08:40:01.962Z,1.40
2022-08-14T08:42:31.430Z,1.40
2022-08-14T08:45:11.835Z,1.48
2022-08-14T08:47:40.870Z,1.52
2022-08-14T08:50:31.152Z,1.38
2022-08-14T08:52:59.736Z,1.30
2022-08-14T08:55:31.186Z,1.48
2022-08-14T08:58:00.102Z,1.35
2022-08-14T09:00:33.854Z,1.40
2022-08-14T09:03:05.123Z,1.33
2022-08-14T09:05:34.963Z,1.35
2022-08-14T09:08:30.600Z,1.50
2022-08-14T09:11:00.164Z,1.40
2022-08-14T09:13:30.611Z,1.40
2022-08-14T09:15:59.719Z,1.48
2022-08-14T09:18:27.937Z,1.52
2022-08-14T09:20:58.743Z,1.48
2022-08-14T09:23:27.446Z,1.60
2022-08-14T09:26:05.183Z,1.48
2022-08-14T09:28:49.920Z,1.30
2022-08-14T09:31:18.299Z,1.65
2022-08-14T09:33:56.275Z,1.20
2022-08-14T09:36:38.082Z,1.60
2022-08-14T09:39:22.993Z,1.42
2022-08-14T09:42:17.303Z,1.65
2022-08-14T09:44:52.043Z,1.50
2022-08-14T09:47:21.183Z,1.55
2022-08-14T09:49:53.062Z,1.30
2022-08-14T09:52:33.205Z,1.58
2022-08-14T09:55:02.614Z,1.40
2022-08-14T09:57:31.472Z,1.70
2022-08-14T09:59:59.427Z,1.50
2022-08-14T10:02:28.478Z,1.70
2022-08-14T10:05:03.336Z,1.70
2022-08-14T10:07:33.855Z,1.52
2022-08-14T10:10:02.174Z,1.88
2022-08-14T10:12:46.671Z,1.63
2022-08-14T10:15:19.418Z,1.73
2022-08-14T10:17:48.906Z,1.60
2022-08-14T10:20:39.757Z,1.77
2022-08-14T10:23:17.984Z,1.90
2022-08-14T10:25:47.528Z,1.63
2022-08-14T10:28:39.148Z,1.67
2022-08-14T10:31:04.296Z,1.83
2022-08-14T10:33:32.996Z,1.77
2022-08-14T10:36:01.495Z,1.90
2022-08-14T10:38:33.888Z,2.00
2022-08-14T10:41:13.173Z,2.13
2022-08-14T10:43:42.018Z,2.20
2022-08-14T10:47:25.084Z,1.98
2022-08-14T10:49:04.313Z,2.20
2022-08-14T10:51:36.317Z,1.98
2022-08-14T10:54:34.961Z,1.88
2022-08-14T10:56:57.819Z,2.10
2022-08-14T10:59:30.738Z,2.13
2022-08-14T11:01:59.955Z,2.00
2022-08-14T11:04:30.185Z,2.22
2022-08-14T11:06:58.142Z,1.80
2022-08-14T11:09:31.778Z,2.30
2022-08-14T11:12:39.966Z,2.00
2022-08-14T11:14:59.122Z,2.10
2022-08-14T11:17:28.558Z,1.90
2022-08-14T11:20:00.739Z,2.20
2022-08-14T11:22:52.921Z,2.08
2022-08-14T11:25:19.382Z,2.10
2022-08-14T11:27:49.152Z,2.10
2022-08-14T11:30:50.104Z,2.17
2022-08-14T11:33:07.123Z,2.20
2022-08-14T11:35:47.496Z,2.40
2022-08-14T11:38:17.826Z,2.10
2022-08-14T11:40:47.635Z,2.25
2022-08-14T11:43:16.213Z,2.28
2022-08-14T11:45:47.988Z,2.50
2022-08-14T11:49:03.153Z,2.58
2022-08-14T11:51:04.879Z,2.40
2022-08-14T11:53:35.779Z,2.40
2022-08-14T11:56:11.344Z,2.20
2022-08-14T11:58:39.152Z,2.20
2022-08-14T12:01:09.508Z,2.47
2022-08-14T12:03:46.782Z,2.50
2022-08-14T12:06:29.687Z,2.40
2022-08-14T12:09:08.902Z,2.47
2022-08-14T12:11:47.491Z,2.40
2022-08-14T12:14:30.066Z,2.65
2022-08-14T12:17:04.107Z,2.55
2022-08-14T12:19:34.969Z,2.38
2022-08-14T12:22:03.224Z,2.30
2022-08-14T12:24:36.584Z,2.67
2022-08-14T12:27:08.900Z,2.60
2022-08-14T12:29:37.308Z,2.50
2022-08-14T12:32:09.011Z,2.53
2022-08-14T12:34:41.837Z,2.53
2022-08-14T12:37:12.923Z,2.53
2022-08-14T12:39:40.950Z,2.78
2022-08-14T12:42:11.979Z,2.58
2022-08-14T12:44:59.907Z,2.60
2022-08-14T12:47:32.072Z,2.40
2022-08-14T12:50:00.216Z,2.35
2022-08-14T12:52:42.953Z,2.53
2022-08-14T12:55:20.802Z,2.70
2022-08-14T12:57:53.206Z,3.00
2022-08-14T13:00:23.996Z,2.40
2022-08-14T13:02:55.416Z,2.80
2022-08-14T13:05:24.378Z,2.67
2022-08-14T13:07:57.147Z,2.63
2022-08-14T13:10:46.678Z,2.67
2022-08-14T13:13:16.917Z,2.85
2022-08-14T13:15:46.172Z,2.90
2022-08-14T13:18:15.677Z,2.40
2022-08-14T13:20:51.420Z,2.72
2022-08-14T13:23:30.437Z,2.60
2022-08-14T13:26:00.112Z,2.67
2022-08-14T13:28:33.590Z,2.60
2022-08-14T13:31:03.652Z,2.72
2022-08-14T13:33:37.076Z,2.60
2022-08-14T13:36:08.945Z,2.72
2022-08-14T13:38:36.775Z,2.58
2022-08-14T13:41:06.092Z,2.67
2022-08-14T13:43:36.782Z,3.30
2022-08-14T13:46:17.687Z,2.63
2022-08-14T13:48:45.404Z,2.70
2022-08-14T13:51:13.106Z,2.70
2022-08-14T13:53:56.670Z,2.97
2022-08-14T13:56:36.507Z,3.00
2022-08-14T13:59:06.411Z,2.80
2022-08-14T14:01:42.958Z,3.00
2022-08-14T14:04:19.093Z,2.88
2022-08-14T14:06:48.330Z,2.90
2022-08-14T14:09:16.330Z,3.20
2022-08-14T14:11:44.411Z,3.05
2022-08-14T14:14:45.045Z,3.13
2022-08-14T14:17:01.871Z,3.20
2022-08-14T14:19:31.216Z,3.20
2022-08-14T14:21:58.936Z,3.10
2022-08-14T14:24:26.636Z,3.35
2022-08-14T14:27:23.761Z,3.10
2022-08-14T14:29:55.586Z,3.25
2022-08-14T14:32:25.350Z,3.10
2022-08-14T14:34:55.873Z,3.35
2022-08-14T14:37:25.026Z,3.33
2022-08-14T14:40:53.018Z,2.75
2022-08-14T14:42:46.300Z,3.17
2022-08-14T14:45:17.853Z,3.00
2022-08-14T14:47:47.558Z,3.47
2022-08-14T14:50:17.167Z,3.30
2022-08-14T14:52:44.969Z,3.10
2022-08-14T14:55:13.540Z,3.20
2022-08-14T14:57:52.199Z,3.28
2022-08-14T15:00:24.364Z,3.08
2022-08-14T15:02:59.708Z,3.30
2022-08-14T15:05:28.479Z,3.33
2022-08-14T15:07:56.604Z,3.35
2022-08-14T15:10:28.075Z,3.25
2022-08-14T15:13:04.126Z,3.13
2022-08-14T15:15:37.500Z,3.17
2022-08-14T15:18:07.893Z,3.15
2022-08-14T15:20:54.924Z,3.10
2022-08-14T15:23:24.343Z,3.38
2022-08-14T15:25:53.368Z,3.40
2022-08-14T15:28:22.030Z,3.70
2022-08-14T15:30:58.855Z,3.47
2022-08-14T15:34:01.132Z,3.33
2022-08-14T15:36:29.862Z,3.50
2022-08-14T15:38:58.912Z,3.55
2022-08-14T15:41:27.188Z,3.42
2022-08-14T15:44:18.968Z,3.33
2022-08-14T15:46:55.728Z,3.25
2022-08-14T15:49:28.585Z,3.55
2022-08-14T15:52:03.694Z,3.60
2022-08-14T15:54:31.910Z,3.25
2022-08-14T15:57:00.553Z,3.50
2022-08-14T15:59:48.632Z,3.60
2022-08-14T16:02:18.858Z,3.63
2022-08-14T16:04:52.523Z,3.40
2022-08-14T16:07:22.007Z,3.58
2022-08-14T16:10:01.348Z,3.80
2022-08-14T16:12:46.243Z,3.55
2022-08-14T16:15:15.859Z,3.50
2022-08-14T16:17:46.485Z,3.33
2022-08-14T16:20:42.262Z,3.55
2022-08-14T16:23:11.441Z,3.38
2022-08-14T16:25:40.573Z,3.28
2022-08-14T16:28:08.471Z,3.38
2022-08-14T16:30:36.205Z,3.70
2022-08-14T16:33:06.790Z,3.60
2022-08-14T16:35:43.459Z,3.75
2022-08-14T16:38:45.985Z,3.50
2022-08-14T16:41:23.125Z,3.30
2022-08-14T16:43:51.330Z,3.40
2022-08-14T16:46:22.524Z,3.22
2022-08-14T16:48:57.404Z,3.58
2022-08-14T16:51:26.266Z,3.55
2022-08-14T16:53:56.425Z,3.13
2022-08-14T16:56:25.614Z,3.40
2022-08-14T16:59:06.609Z,3.30
2022-08-14T17:01:36.134Z,3.55
2022-08-14T17:04:08.576Z,3.47
2022-08-14T17:06:47.456Z,3.42
2022-08-14T17:09:32.713Z,3.30
2022-08-14T17:12:07.405Z,3.05
2022-08-14T17:14:50.625Z,3.30
2022-08-14T17:17:20.203Z,3.40
2022-08-14T17:19:56.071Z,3.28
2022-08-14T17:22:24.028Z,3.50
2022-08-14T17:25:02.923Z,3.45
2022-08-14T17:27:31.807Z,3.05
2022-08-14T17:29:59.652Z,3.58
2022-08-14T17:32:44.494Z,3.60
2022-08-14T17:35:26.506Z,3.42
2022-08-14T17:37:55.842Z,3.83
2022-08-14T17:40:26.490Z,3.13
2022-08-14T17:42:58.914Z,3.20
2022-08-14T17:45:45.293Z,3.25
2022-08-14T17:49:10.758Z,3.10
2022-08-14T17:51:24.197Z,3.38
2022-08-14T17:56:38.681Z,3.33
2022-08-14T17:59:07.087Z,3.05
2022-08-14T18:01:38.720Z,3.30
2022-08-14T18:04:24.769Z,3.40
2022-08-14T18:07:06.012Z,3.08
2022-08-14T18:09:38.603Z,3.20
2022-08-14T18:12:08.489Z,3.33
2022-08-14T18:14:48.906Z,3.60
2022-08-14T18:17:23.067Z,3.25
2022-08-14T18:19:52.473Z,3.30
2022-08-14T18:22:32.125Z,3.33
2022-08-14T18:25:05.107Z,3.30
2022-08-14T18:27:48.338Z,3.10
2022-08-14T18:30:31.987Z,3.05
2022-08-14T18:33:20.899Z,3.35
2022-08-14T18:35:58.529Z,3.00
2022-08-14T18:38:55.210Z,3.15
2022-08-14T18:41:36.412Z,3.40
2022-08-14T18:44:10.716Z,3.10
2022-08-14T18:47:14.964Z,3.35
2022-08-14T18:50:26.838Z,3.20
2022-08-14T18:52:53.988Z,3.40
2022-08-14T18:55:47.638Z,3.05
2022-08-14T18:58:30.452Z,3.15
2022-08-14T19:01:00.191Z,3.25
2022-08-14T19:03:45.210Z,3.38
2022-08-14T19:06:16.487Z,3.13
2022-08-14T19:08:45.564Z,3.00
2022-08-14T19:11:50.400Z,3.10
2022-08-14T19:14:42.519Z,3.05
2022-08-14T19:17:42.623Z,3.17
2022-08-14T19:20:11.634Z,3.00
2022-08-14T19:22:40.613Z,3.00
2022-08-14T19:25:09.662Z,3.03
2022-08-14T19:27:44.274Z,3.40
2022-08-14T19:30:23.259Z,3.15
2022-08-14T19:32:55.692Z,3.10
2022-08-14T19:36:00.165Z,2.83
2022-08-14T19:38:57.519Z,2.92
2022-08-14T19:41:30.151Z,3.00
2022-08-14T19:44:11.988Z,3.10
2022-08-14T19:47:00.053Z,3.30
2022-08-14T19:50:24.535Z,3.03
2022-08-14T19:52:21.134Z,3.08
2022-08-14T19:54:50.452Z,2.90
2022-08-14T19:57:19.874Z,3.47
2022-08-14T19:59:58.027Z,2.97
2022-08-14T20:02:30.341Z,2.78
2022-08-14T20:04:59.387Z,3.20
2022-08-14T20:07:59.196Z,3.35
2022-08-14T20:11:04.788Z,2.80
2022-08-14T20:13:24.035Z,2.80
2022-08-14T20:15:53.047Z,2.90
2022-08-14T20:18:48.706Z,2.83
2022-08-14T20:21:14.871Z,3.20
2022-08-14T20:23:42.600Z,3.42
2022-08-14T20:26:31.655Z,2.70
2022-08-14T20:29:05.015Z,3.25
2022-08-14T20:31:36.621Z,3.00
2022-08-14T20:34:19.381Z,2.83
2022-08-14T20:37:02.612Z,3.00
2022-08-14T20:39:34.506Z,3.00
2022-08-14T20:42:24.930Z,3.08
2022-08-14T20:45:13.314Z,3.00
2022-08-14T20:47:58.444Z,3.00
2022-08-14T20:50:30.149Z,2.70
2022-08-14T20:52:58.223Z,2.90
2022-08-14T20:55:28.863Z,3.00
2022-08-14T20:57:58.844Z,2.90
2022-08-14T21:00:38.120Z,2.80
2022-08-14T21:03:35.733Z,2.80
2022-08-14T21:06:17.456Z,2.63
2022-08-14T21:08:48.232Z,2.78
2022-08-14T21:11:17.827Z,2.75
2022-08-14T21:14:20.102Z,3.03
2022-08-14T21:16:39.346Z,2.70
2022-08-14T21:19:16.278Z,2.72
2022-08-14T21:21:45.235Z,2.85
2022-08-14T21:24:39.536Z,3.05
2022-08-14T21:27:12.741Z,2.58
2022-08-14T21:29:53.516Z,2.80
2022-08-14T21:32:33.670Z,2.58
2022-08-14T21:35:08.625Z,2.95
2022-08-14T21:37:44.972Z,2.80
2022-08-14T21:40:39.933Z,2.67
2022-08-14T21:43:01.910Z,2.90
2022-08-14T21:45:31.816Z,2.70
2022-08-14T21:48:09.180Z,2.85
2022-08-14T21:51:01.478Z,3.10
2022-08-14T21:53:31.014Z,3.10
2022-08-14T21:55:59.288Z,2.80
2022-08-14T21:58:53.112Z,2.40
2022-08-14T22:01:17.180Z,2.65
2022-08-14T22:03:54.807Z,2.60
2022-08-14T22:06:28.864Z,2.80
2022-08-14T22:08:58.111Z,2.75
2022-08-14T22:11:26.115Z,2.85
2022-08-14T22:13:55.874Z,2.70
2022-08-14T22:17:01.975Z,2.80
2022-08-14T22:19:13.781Z,2.72
2022-08-14T22:21:44.032Z,2.65
2022-08-14T22:24:12.719Z,2.40
2022-08-14T22:27:01.405Z,2.90
2022-08-14T22:29:29.708Z,2.53
2022-08-14T22:31:58.168Z,2.83
2022-08-14T22:34:26.835Z,2.70
2022-08-14T22:36:58.383Z,2.58
2022-08-14T22:40:17.448Z,2.83
2022-08-14T22:42:21.291Z,2.75
2022-08-14T22:44:50.587Z,2.92
2022-08-14T22:47:19.320Z,2.70
2022-08-14T22:50:29.282Z,2.80
2022-08-14T22:52:49.318Z,2.70
2022-08-14T22:55:17.401Z,2.70
2022-08-14T22:57:45.128Z,3.05
2022-08-14T23:00:14.931Z,2.80
2022-08-14T23:02:44.331Z,2.80
2022-08-14T23:05:15.178Z,3.10
2022-08-14T23:08:56.884Z,2.67
2022-08-14T23:10:34.613Z,2.80
2022-08-14T23:13:03.564Z,3.05
2022-08-14T23:15:32.510Z,2.92
2022-08-14T23:18:03.253Z,2.75
2022-08-14T23:20:31.799Z,2.65
2022-08-14T23:23:01.072Z,2.70
2022-08-14T23:25:57.782Z,2.50
2022-08-14T23:28:35.018Z,2.67
2022-08-14T23:31:08.381Z,2.75
2022-08-14T23:33:42.134Z,2.70
2022-08-14T23:36:32.680Z,3.50
2022-08-14T23:39:10.602Z,2.80
2022-08-14T23:41:52.667Z,2.92
2022-08-14T23:44:21.517Z,2.90
2022-08-14T23:46:49.513Z,2.95
2022-08-14T23:49:21.353Z,3.17
2022-08-14T23:51:59.817Z,2.90
2022-08-14T23:54:48.006Z,2.97
2022-08-14T23:57:19.299Z,2.60
2022-08-14T23:59:54.726Z,2.65
